Time;durP1;ratioP1;P1;durP2;ratioP2;P2;SDS_P1;SDS_P2;PMS_P1;PMS_P2;Temp;Humidity;BMP_temperature;BMP_pressure;BME280_temperature;BME280_humidity;BME280_pressure;Samples;Min_cycle;Max_cycle;Signal;HPM_P1;HPM_P2
2021/06/18 00:02:17;;;;;;;;;;;;;;;23.49;59.74;101317.63;5137904;27;19907;-41
2021/06/18 00:04:42;;;;;;;;;;;;;;;23.46;59.70;101330.06;5138027;27;19934;-41
2021/06/18 00:07:08;;;;;;;;;;;;;;;23.46;58.00;101332.03;5138715;27;19915;-41
2021/06/18 00:09:33;;;;;;;;;;;;;;;23.45;58.37;101327.63;5138206;27;19999;-41
2021/06/18 00:11:58;;;;;;;;;;;;;;;23.42;58.74;101333.75;5137812;27;20003;-41
2021/06/18 00:14:23;;;;;;;;;;;;;;;23.40;58.36;101334.06;5137640;27;19908;-41
2021/06/18 00:16:49;;;;;;;;;;;;;;;23.41;58.99;101326.59;5138149;27;19907;-41
2021/06/18 00:19:14;;;;;;;;;;;;;;;23.39;58.71;101324.97;5137711;27;20351;-41
2021/06/18 00:21:39;;;;;;;;;;;;;;;23.39;58.76;101316.69;5137743;27;19908;-41
2021/06/18 00:24:05;;;;;;;;;;;;;;;23.33;59.15;101309.66;5137549;27;19907;-41
2021/06/18 00:26:30;;;;;;;;;;;;;;;23.33;58.92;101322.63;5138160;27;20292;-41
2021/06/18 00:28:55;;;;;;;;;;;;;;;23.31;59.51;101325.69;5137481;27;19907;-41
2021/06/18 00:31:21;;;;;;;;;;;;;;;23.31;59.14;101324.84;5137797;27;19907;-41
2021/06/18 00:33:46;;;;;;;;;;;;;;;23.31;59.02;101320.16;5137099;27;20374;-41
2021/06/18 00:36:11;;;;;;;;;;;;;;;23.32;58.42;101302.47;5138961;27;19933;-41
2021/06/18 00:38:36;;;;;;;;;;;;;;;23.34;58.74;101310.47;5137047;27;20314;-41
2021/06/18 00:41:02;;;;;;;;;;;;;;;23.33;58.34;101304.13;5135767;27;19907;-41
2021/06/18 00:43:27;;;;;;;;;;;;;;;23.33;59.29;101297.78;5137159;27;19927;-41
2021/06/18 00:45:52;;;;;;;;;;;;;;;23.29;58.95;101294.81;5137994;27;19972;-41
2021/06/18 00:48:20;;;;;;;;;;;;;;;23.27;59.37;101299.00;5136886;27;19907;-41
2021/06/18 00:50:46;;;;;;;;;;;;;;;23.23;59.65;101290.53;5137150;27;19907;-41
2021/06/18 00:53:12;;;;;;;;;;;;;;;23.22;58.82;101286.13;5136781;27;20010;-41
2021/06/18 00:55:37;;;;;;;;;;;;;;;23.24;61.20;101286.66;5137339;27;20281;-41
2021/06/18 00:58:02;;;;;;;;;;;;;;;23.15;63.10;101276.63;5136935;27;19980;-41
2021/06/18 01:00:28;;;;;;;;;;;;;;;23.05;61.66;101272.13;5136956;27;19907;-41
2021/06/18 01:02:53;;;;;;;;;;;;;;;22.98;63.75;101279.97;5136496;27;19911;-41
2021/06/18 01:05:19;;;;;;;;;;;;;;;22.95;62.11;101280.59;5136812;27;19907;-41
2021/06/18 01:07:44;;;;;;;;;;;;;;;22.93;63.19;101274.53;5136428;27;19907;-41
2021/06/18 01:10:17;;;;;;;;;;;;;;;22.95;60.97;101277.81;5137332;27;19918;-41
2021/06/18 01:13:08;;;;;;;;;;;;;;;22.95;61.23;101275.06;5137022;27;19979;-41
2021/06/18 01:15:40;;;;;;;;;;;;;;;22.99;60.71;101287.13;5136649;27;19911;-41
2021/06/18 01:18:11;;;;;;;;;;;;;;;23.02;60.48;101292.84;5136907;27;19907;-41
2021/06/18 01:20:43;;;;;;;;;;;;;;;23.03;60.27;101288.94;5137438;27;19930;-41
2021/06/18 01:23:23;;;;;;;;;;;;;;;23.06;60.95;101293.06;5136049;27;19907;-41
2021/06/18 01:25:51;;;;;;;;;;;;;;;23.08;60.31;101293.56;5136474;27;19914;-41
2021/06/18 01:28:34;;;;;;;;;;;;;;;23.10;59.52;101303.19;5136265;27;19908;-41
2021/06/18 01:31:01;;;;;;;;;;;;;;;23.12;59.94;101302.88;5136263;27;20441;-41
2021/06/18 01:33:28;;;;;;;;;;;;;;;23.13;60.51;101296.22;5136508;27;19914;-41
2021/06/18 01:35:56;;;;;;;;;;;;;;;23.11;60.31;101298.47;5136845;27;19915;-41
2021/06/18 01:38:22;;;;;;;;;;;;;;;23.13;60.47;101307.25;5136125;27;19911;-41
2021/06/18 01:40:49;;;;;;;;;;;;;;;22.99;62.46;101298.16;5136439;27;20283;-41
2021/06/18 01:43:17;;;;;;;;;;;;;;;22.90;61.60;101300.78;5135742;27;19907;-41
2021/06/18 01:45:44;;;;;;;;;;;;;;;22.92;61.47;101317.84;5136337;27;19907;-41
2021/06/18 01:48:11;;;;;;;;;;;;;;;22.93;61.09;101319.47;5135960;27;19907;-41
2021/06/18 01:50:38;;;;;;;;;;;;;;;22.96;60.78;101312.56;5135645;27;19907;-41
2021/06/18 01:53:10;;;;;;;;;;;;;;;23.00;60.84;101302.56;5135163;27;19998;-41
2021/06/18 01:55:36;;;;;;;;;;;;;;;23.00;61.99;101299.78;5136415;27;20353;-41
2021/06/18 01:58:04;;;;;;;;;;;;;;;22.99;61.20;101303.69;5135497;27;19983;-41
2021/06/18 02:00:30;;;;;;;;;;;;;;;22.99;60.75;101304.50;5134092;27;20320;-41
2021/06/18 02:02:57;;;;;;;;;;;;;;;22.99;61.42;101287.94;5135567;27;19907;-41
2021/06/18 02:05:23;;;;;;;;;;;;;;;23.00;60.54;101286.81;5136560;27;19961;-41
2021/06/18 02:07:49;;;;;;;;;;;;;;;22.99;60.92;101285.19;5135643;27;20362;-41
2021/06/18 02:10:15;;;;;;;;;;;;;;;22.97;60.46;101287.41;5135690;27;20007;-41
2021/06/18 02:12:41;;;;;;;;;;;;;;;22.96;60.68;101273.94;5135565;27;19914;-41
2021/06/18 02:15:08;;;;;;;;;;;;;;;22.93;61.36;101275.34;5135604;27;19908;-41
2021/06/18 02:17:34;;;;;;;;;;;;;;;22.93;60.58;101282.81;5135130;27;20350;-41
2021/06/18 02:20:00;;;;;;;;;;;;;;;22.90;61.09;101280.69;5135761;27;19911;-41
2021/06/18 02:22:25;;;;;;;;;;;;;;;22.87;60.64;101279.28;5135340;27;20262;-41
2021/06/18 02:24:51;;;;;;;;;;;;;;;22.85;61.15;101276.84;5135726;27;19907;-41
2021/06/18 02:27:17;;;;;;;;;;;;;;;22.85;60.31;101274.09;5136092;27;19993;-41
2021/06/18 02:29:43;;;;;;;;;;;;;;;22.85;60.75;101268.59;5135270;27;19907;-41
2021/06/18 02:32:09;;;;;;;;;;;;;;;22.84;60.59;101274.41;5135715;27;19913;-41
2021/06/18 02:34:35;;;;;;;;;;;;;;;22.82;60.88;101282.97;5135579;27;20236;-41
2021/06/18 02:37:01;;;;;;;;;;;;;;;22.82;61.04;101282.97;5135136;27;19957;-41
2021/06/18 02:39:27;;;;;;;;;;;;;;;22.84;61.42;101319.34;5135043;27;20412;-41
2021/06/18 02:41:52;;;;;;;;;;;;;;;22.84;63.12;101357.94;5135150;27;19915;-41
2021/06/18 02:44:17;;;;;;;;;;;;;;;22.82;64.02;101367.63;5135299;27;19908;-41
2021/06/18 02:46:58;;;;;;;;;;;;;;;22.76;63.96;101344.81;5135288;27;19994;-41
2021/06/18 02:49:29;;;;;;;;;;;;;;;22.71;65.39;101308.25;5134695;27;20010;-41
2021/06/18 02:51:54;;;;;;;;;;;;;;;22.60;65.24;101285.56;5135822;27;20016;-41
2021/06/18 02:54:22;;;;;;;;;;;;;;;22.54;65.09;101303.28;5134869;27;19908;-41
2021/06/18 02:56:50;;;;;;;;;;;;;;;22.52;63.34;101295.31;5134692;27;20000;-41
2021/06/18 02:59:15;;;;;;;;;;;;;;;22.51;64.21;101271.66;5134841;27;19907;-41
2021/06/18 03:01:41;;;;;;;;;;;;;;;22.52;63.73;101256.75;5134923;28;20300;-41
2021/06/18 03:04:10;;;;;;;;;;;;;;;22.50;63.50;101258.19;5135552;27;19942;-41
2021/06/18 03:06:37;;;;;;;;;;;;;;;22.49;63.33;101267.53;5138877;27;19995;-41
2021/06/18 03:09:04;;;;;;;;;;;;;;;22.50;64.57;101267.25;5138847;27;20389;-41
2021/06/18 03:11:41;;;;;;;;;;;;;;;22.45;66.05;101264.59;5139025;27;20010;-41
2021/06/18 03:14:08;;;;;;;;;;;;;;;22.36;64.15;101245.16;5139542;27;19907;-41
2021/06/18 03:16:35;;;;;;;;;;;;;;;22.39;64.06;101240.16;5139265;27;19968;-41
2021/06/18 03:19:02;;;;;;;;;;;;;;;22.41;63.74;101276.50;5138932;27;20002;-41
2021/06/18 03:21:30;;;;;;;;;;;;;;;22.43;65.46;101401.84;5139735;27;19968;-41
2021/06/18 03:23:57;;;;;;;;;;;;;;;22.39;66.47;101453.13;5138682;27;19961;-39
2021/06/18 03:26:22;;;;;;;;;;;;;;;22.32;68.19;101450.75;5138529;27;20336;-39
2021/06/18 03:28:48;;;;;;;;;;;;;;;22.25;70.92;101526.59;5138330;27;19907;-39
2021/06/18 03:31:16;;;;;;;;;;;;;;;21.70;75.37;101366.41;5139222;27;19915;-39
2021/06/18 03:33:42;;;;;;;;;;;;;;;21.26;76.82;101348.94;5138908;27;20309;-39
2021/06/18 03:36:08;;;;;;;;;;;;;;;20.77;77.49;101346.38;5139156;27;19911;-39
2021/06/18 03:38:35;;;;;;;;;;;;;;;20.49;77.14;101331.47;5138034;27;19907;-39
2021/06/18 03:41:00;;;;;;;;;;;;;;;20.25;79.36;101304.69;5138353;27;20487;-40
2021/06/18 03:43:26;;;;;;;;;;;;;;;20.21;80.06;101316.53;5137985;27;20010;-39
2021/06/18 03:45:55;;;;;;;;;;;;;;;20.19;76.96;101337.94;5138606;27;19911;-40
2021/06/18 03:48:21;;;;;;;;;;;;;;;20.23;75.45;101383.78;5138223;27;20415;-40
2021/06/18 03:50:46;;;;;;;;;;;;;;;20.27;75.00;101423.31;5137963;27;20343;-40
2021/06/18 03:53:14;;;;;;;;;;;;;;;20.32;78.28;101496.63;5138149;27;19913;-40
2021/06/18 03:55:39;;;;;;;;;;;;;;;20.28;81.04;101561.44;5139031;27;19966;-41
2021/06/18 03:58:05;;;;;;;;;;;;;;;20.22;79.97;101565.31;5138092;27;19923;-40
2021/06/18 04:00:36;;;;;;;;;;;;;;;20.13;82.36;101493.66;5138966;27;19908;-40
2021/06/18 04:03:01;;;;;;;;;;;;;;;19.97;78.38;101475.59;5137943;27;20014;-40
2021/06/18 04:05:27;;;;;;;;;;;;;;;19.93;81.85;101444.31;5138580;27;19994;-40
2021/06/18 04:07:54;;;;;;;;;;;;;;;19.72;83.22;101367.53;5137844;27;19911;-40
2021/06/18 04:10:20;;;;;;;;;;;;;;;19.65;80.28;101350.53;5138406;27;19998;-40
2021/06/18 04:12:47;;;;;;;;;;;;;;;19.64;79.31;101381.81;5137723;27;19950;-40
2021/06/18 04:15:15;;;;;;;;;;;;;;;19.66;80.97;101407.03;5137775;27;19911;-40
2021/06/18 04:17:41;;;;;;;;;;;;;;;19.58;79.92;101377.44;5137651;27;20036;-40
2021/06/18 04:20:06;;;;;;;;;;;;;;;19.49;78.36;101370.84;5138002;27;19958;-40
2021/06/18 04:22:32;;;;;;;;;;;;;;;19.54;77.87;101373.59;5138007;27;20258;-40
2021/06/18 04:24:58;;;;;;;;;;;;;;;19.55;78.43;101380.72;5137364;27;19914;-40
2021/06/18 04:27:23;;;;;;;;;;;;;;;19.53;77.67;101369.22;5137583;27;19950;-40
2021/06/18 04:29:49;;;;;;;;;;;;;;;19.55;79.87;101356.84;5137292;27;19958;-40
2021/06/18 04:32:14;;;;;;;;;;;;;;;19.55;78.36;101353.28;5137513;27;20372;-40
2021/06/18 04:34:40;;;;;;;;;;;;;;;19.58;77.55;101355.47;5138375;27;20246;-41
2021/06/18 04:37:06;;;;;;;;;;;;;;;19.59;77.67;101362.59;5137312;27;19952;-40
2021/06/18 04:39:31;;;;;;;;;;;;;;;19.56;77.54;101366.72;5137483;27;20268;-40
2021/06/18 04:41:58;;;;;;;;;;;;;;;19.60;80.60;101371.69;5136545;27;19963;-40
2021/06/18 04:44:23;;;;;;;;;;;;;;;19.55;78.54;101372.47;5137623;27;20259;-40
2021/06/18 04:46:49;;;;;;;;;;;;;;;19.58;78.52;101380.16;5137248;27;19912;-40
2021/06/18 04:49:14;;;;;;;;;;;;;;;19.61;80.99;101379.63;5138001;27;19914;-40
2021/06/18 04:51:39;;;;;;;;;;;;;;;19.59;78.76;101378.25;5137096;27;20239;-40
2021/06/18 04:54:06;;;;;;;;;;;;;;;19.58;78.57;101384.84;5137387;27;19907;-40
2021/06/18 04:56:31;;;;;;;;;;;;;;;19.61;77.19;101387.84;5137569;27;19907;-40
2021/06/18 04:58:59;;;;;;;;;;;;;;;19.70;77.09;101380.69;5136634;27;20225;-40
2021/06/18 05:01:24;;;;;;;;;;;;;;;19.80;79.34;101385.34;5137284;27;20313;-40
2021/06/18 05:03:49;;;;;;;;;;;;;;;19.81;78.31;101370.50;5137346;27;19919;-40
2021/06/18 05:06:15;;;;;;;;;;;;;;;19.86;78.54;101362.25;5136909;27;19907;-40
2021/06/18 05:08:40;;;;;;;;;;;;;;;19.94;79.28;101369.91;5136810;27;19915;-40
2021/06/18 05:11:05;;;;;;;;;;;;;;;19.96;79.79;101355.91;5137573;27;19953;-40
2021/06/18 05:13:30;;;;;;;;;;;;;;;19.98;79.71;101368.25;5136735;27;20370;-40
2021/06/18 05:15:56;;;;;;;;;;;;;;;20.06;79.75;101353.13;5136956;27;20340;-40
2021/06/18 05:18:21;;;;;;;;;;;;;;;20.11;78.86;101353.09;5136590;27;19914;-41
2021/06/18 05:20:46;;;;;;;;;;;;;;;20.20;79.29;101350.56;5136926;27;20339;-40
2021/06/18 05:23:11;;;;;;;;;;;;;;;20.24;79.07;101349.72;5136698;27;20434;-40
2021/06/18 05:25:36;;;;;;;;;;;;;;;20.31;80.58;101347.50;5136526;27;20268;-41
2021/06/18 05:28:02;;;;;;;;;;;;;;;20.37;79.06;101359.25;5136179;27;19918;-40
2021/06/18 05:30:27;;;;;;;;;;;;;;;20.45;81.01;101357.84;5135561;27;19930;-40
2021/06/18 05:32:52;;;;;;;;;;;;;;;20.47;78.47;101350.16;5136247;27;19956;-40
2021/06/18 05:35:18;;;;;;;;;;;;;;;20.54;79.82;101351.47;5137357;27;19918;-40
2021/06/18 05:37:43;;;;;;;;;;;;;;;20.56;80.02;101334.72;5136456;27;20390;-40
2021/06/18 05:40:09;;;;;;;;;;;;;;;20.58;79.05;101325.06;5135984;27;19907;-40
2021/06/18 05:42:35;;;;;;;;;;;;;;;20.66;80.40;101337.38;5135822;27;19907;-40
2021/06/18 05:45:00;;;;;;;;;;;;;;;20.59;79.62;101331.38;5136461;27;19967;-40
2021/06/18 05:47:25;;;;;;;;;;;;;;;20.61;79.26;101334.69;5135773;27;19911;-40
2021/06/18 05:49:50;;;;;;;;;;;;;;;20.67;78.71;101333.53;5136904;27;19907;-40
2021/06/18 05:52:16;;;;;;;;;;;;;;;20.69;81.75;101336.84;5135961;27;20239;-40
2021/06/18 05:54:41;;;;;;;;;;;;;;;20.69;80.66;101347.81;5134844;27;19914;-40
2021/06/18 05:57:07;;;;;;;;;;;;;;;20.69;79.26;101349.72;5136185;27;19907;-40
2021/06/18 05:59:32;;;;;;;;;;;;;;;20.73;78.60;101359.03;5135357;27;19911;-40
2021/06/18 06:01:57;;;;;;;;;;;;;;;20.76;79.01;101370.28;5135388;27;19914;-40
2021/06/18 06:04:22;;;;;;;;;;;;;;;20.77;78.02;101365.59;5136604;27;19934;-40
2021/06/18 06:06:47;;;;;;;;;;;;;;;20.79;77.78;101374.41;5136271;27;19907;-40
2021/06/18 06:09:13;;;;;;;;;;;;;;;20.81;77.29;101370.25;5136424;27;19914;-40
2021/06/18 06:11:38;;;;;;;;;;;;;;;20.81;78.37;101367.50;5135636;27;19914;-40
2021/06/18 06:14:04;;;;;;;;;;;;;;;20.74;80.72;101361.53;5136098;27;19908;-40
2021/06/18 06:16:30;;;;;;;;;;;;;;;20.72;78.70;101352.72;5135805;27;20325;-39
2021/06/18 06:18:55;;;;;;;;;;;;;;;20.76;79.52;101353.81;5136086;27;19950;-40
2021/06/18 06:21:21;;;;;;;;;;;;;;;20.73;80.74;101348.88;5135449;27;19907;-40
2021/06/18 06:23:47;;;;;;;;;;;;;;;20.69;79.13;101358.81;5135246;27;19950;-39
2021/06/18 06:26:13;;;;;;;;;;;;;;;20.73;79.14;101365.34;5135019;27;20323;-39
2021/06/18 06:28:38;;;;;;;;;;;;;;;20.70;80.59;101362.38;5135021;27;19954;-40
2021/06/18 06:31:04;;;;;;;;;;;;;;;20.55;81.27;101360.56;5135077;27;19915;-40
2021/06/18 06:33:29;;;;;;;;;;;;;;;20.57;82.53;101358.34;5135266;27;19914;-40
2021/06/18 06:35:54;;;;;;;;;;;;;;;20.58;81.67;101357.22;5135884;27;19911;-40
2021/06/18 06:38:20;;;;;;;;;;;;;;;20.59;83.72;101361.59;5135192;27;20379;-40
2021/06/18 06:40:46;;;;;;;;;;;;;;;20.58;82.15;101359.97;5133881;27;19976;-39
2021/06/18 06:43:11;;;;;;;;;;;;;;;20.68;81.31;101354.41;5135663;27;19950;-40
2021/06/18 06:45:36;;;;;;;;;;;;;;;20.80;80.67;101354.88;5135409;27;19951;-40
2021/06/18 06:48:02;;;;;;;;;;;;;;;20.92;80.75;101357.22;5134713;27;19911;-40
2021/06/18 06:50:27;;;;;;;;;;;;;;;21.03;80.72;101363.47;5135381;27;19907;-40
2021/06/18 06:52:52;;;;;;;;;;;;;;;21.02;82.23;101361.81;5135253;27;20243;-40
2021/06/18 06:55:17;;;;;;;;;;;;;;;20.98;81.42;101366.25;5135804;27;19930;-40
2021/06/18 06:57:43;;;;;;;;;;;;;;;20.98;80.00;101364.31;5135465;27;20403;-40
2021/06/18 07:00:08;;;;;;;;;;;;;;;21.02;79.37;101370.06;5135544;28;19911;-40
2021/06/18 07:02:34;;;;;;;;;;;;;;;20.99;79.71;101365.16;5133689;28;20001;-40
2021/06/18 07:04:59;;;;;;;;;;;;;;;20.99;79.20;101371.47;5135499;28;19964;-40
2021/06/18 07:07:24;;;;;;;;;;;;;;;21.04;81.26;101365.13;5134837;27;19911;-40
2021/06/18 07:09:49;;;;;;;;;;;;;;;20.80;82.21;101359.56;5134989;28;20351;-40
2021/06/18 07:12:14;;;;;;;;;;;;;;;20.74;83.06;101347.78;5135083;28;19908;-40
2021/06/18 07:14:40;;;;;;;;;;;;;;;20.75;81.59;101363.16;5135058;28;19939;-40
2021/06/18 07:17:06;;;;;;;;;;;;;;;20.77;80.95;101358.19;5134743;27;19907;-40
2021/06/18 07:19:31;;;;;;;;;;;;;;;20.80;81.36;101362.28;5134724;27;19907;-40
2021/06/18 07:21:57;;;;;;;;;;;;;;;20.86;82.71;101363.88;5135158;27;20059;-40
2021/06/18 07:24:22;;;;;;;;;;;;;;;20.85;81.83;101353.19;5134868;28;19946;-40
2021/06/18 07:26:47;;;;;;;;;;;;;;;20.88;80.49;101345.16;5134670;28;20022;-40
2021/06/18 07:29:12;;;;;;;;;;;;;;;20.97;81.07;101348.94;5134639;28;19911;-40
2021/06/18 07:31:38;;;;;;;;;;;;;;;21.02;82.17;101329.66;5135249;27;19907;-40
2021/06/18 07:34:03;;;;;;;;;;;;;;;20.99;80.48;101332.19;5134510;28;19908;-40
2021/06/18 07:36:29;;;;;;;;;;;;;;;21.03;79.69;101336.81;5134973;27;19957;-40
2021/06/18 07:38:54;;;;;;;;;;;;;;;21.12;79.03;101330.66;5134258;27;19994;-39
2021/06/18 07:41:19;;;;;;;;;;;;;;;21.13;79.98;101324.91;5134328;28;19914;-40
2021/06/18 07:43:44;;;;;;;;;;;;;;;21.12;80.50;101328.72;5134485;28;19908;-40
2021/06/18 07:46:10;;;;;;;;;;;;;;;21.11;79.90;101315.28;5134497;28;19913;-40
2021/06/18 07:48:36;;;;;;;;;;;;;;;21.12;79.57;101305.91;5134732;28;19954;-39
2021/06/18 07:51:01;;;;;;;;;;;;;;;21.12;79.49;101301.22;5137016;27;19907;-40
2021/06/18 07:53:26;;;;;;;;;;;;;;;21.18;79.15;101310.25;5138296;27;19998;-40
2021/06/18 07:55:53;;;;;;;;;;;;;;;21.23;79.80;101304.72;5138905;27;19907;-40
2021/06/18 07:58:18;;;;;;;;;;;;;;;21.28;79.82;101310.16;5138729;27;20330;-40
2021/06/18 08:00:44;;;;;;;;;;;;;;;21.38;81.24;101317.53;5138172;27;19907;-40
2021/06/18 08:03:09;;;;;;;;;;;;;;;21.39;81.50;101317.22;5137919;27;19995;-40
2021/06/18 08:05:34;;;;;;;;;;;;;;;21.37;81.41;101307.59;5138781;27;19908;-40
2021/06/18 08:08:00;;;;;;;;;;;;;;;21.34;82.59;101293.34;5137997;27;19907;-40
2021/06/18 08:10:26;;;;;;;;;;;;;;;21.46;80.85;101287.41;5138514;27;19913;-40
2021/06/18 08:12:52;;;;;;;;;;;;;;;21.63;81.00;101289.69;5137913;27;19952;-39
2021/06/18 08:15:17;;;;;;;;;;;;;;;21.82;82.23;101282.28;5137595;27;19909;-39
2021/06/18 08:17:43;;;;;;;;;;;;;;;21.96;82.29;101278.78;5138691;27;19964;-40
2021/06/18 08:20:09;;;;;;;;;;;;;;;22.02;83.38;101270.19;5138058;27;19958;-40
2021/06/18 08:22:34;;;;;;;;;;;;;;;22.06;81.40;101268.47;5138401;27;19907;-40
2021/06/18 08:25:02;;;;;;;;;;;;;;;22.08;81.67;101268.97;5138140;27;19907;-40
2021/06/18 08:27:27;;;;;;;;;;;;;;;22.24;81.78;101274.28;5137247;27;19914;-40
2021/06/18 08:29:52;;;;;;;;;;;;;;;22.42;80.63;101262.44;5138103;27;19911;-40
2021/06/18 08:32:18;;;;;;;;;;;;;;;22.59;79.70;101270.13;5137729;27;19907;-40
2021/06/18 08:34:44;;;;;;;;;;;;;;;22.82;80.19;101271.13;5137515;27;19919;-40
2021/06/18 08:37:09;;;;;;;;;;;;;;;22.84;79.68;101277.97;5137103;27;19908;-40
2021/06/18 08:39:34;;;;;;;;;;;;;;;23.06;78.97;101279.25;5138171;27;19965;-40
2021/06/18 08:41:59;;;;;;;;;;;;;;;23.30;78.52;101271.63;5137307;27;20282;-40
2021/06/18 08:44:25;;;;;;;;;;;;;;;23.40;77.49;101273.34;5137485;27;19911;-40
2021/06/18 08:46:50;;;;;;;;;;;;;;;23.47;75.90;101267.41;5137505;27;19907;-40
2021/06/18 08:49:15;;;;;;;;;;;;;;;23.60;76.82;101272.94;5137415;27;19908;-40
2021/06/18 08:51:40;;;;;;;;;;;;;;;23.72;76.45;101277.13;5136839;27;19911;-40
2021/06/18 08:54:06;;;;;;;;;;;;;;;23.83;76.28;101279.38;5136761;27;19914;-40
2021/06/18 08:56:31;;;;;;;;;;;;;;;23.82;74.78;101272.22;5137665;27;19907;-40
2021/06/18 08:58:56;;;;;;;;;;;;;;;23.88;73.32;101270.97;5136688;27;19914;-39
2021/06/18 09:01:21;;;;;;;;;;;;;;;23.99;74.93;101266.03;5134573;27;19908;-39
2021/06/18 09:03:47;;;;;;;;;;;;;;;24.08;74.45;101275.22;5136665;27;19950;-40
2021/06/18 09:06:26;;;;;;;;;;;;;;;24.22;74.76;101280.72;5137108;27;19912;-40
2021/06/18 09:09:10;;;;;;;;;;;;;;;24.39;74.03;101269.81;5136759;27;19907;-40
2021/06/18 09:11:45;;;;;;;;;;;;;;;24.38;72.52;101275.66;5137330;27;20258;-40
2021/06/18 09:14:13;;;;;;;;;;;;;;;24.25;72.10;101277.31;5137480;27;20047;-40
2021/06/18 09:16:39;;;;;;;;;;;;;;;24.33;70.72;101276.56;5136628;27;19930;-40
2021/06/18 09:19:04;;;;;;;;;;;;;;;24.48;71.25;101271.81;5136731;27;19907;-40
2021/06/18 09:21:29;;;;;;;;;;;;;;;24.52;70.33;101275.59;5136498;27;19972;-40
2021/06/18 09:23:55;;;;;;;;;;;;;;;24.47;69.65;101262.72;5134904;27;19914;-40
2021/06/18 09:26:22;;;;;;;;;;;;;;;24.56;70.68;101263.59;5137011;27;19922;-40
2021/06/18 09:29:06;;;;;;;;;;;;;;;24.73;70.46;101262.06;5136110;27;20266;-40
2021/06/18 09:31:34;;;;;;;;;;;;;;;24.85;69.67;101265.09;5136777;27;19908;-40
2021/06/18 09:33:59;;;;;;;;;;;;;;;24.90;69.63;101257.47;5136177;27;19914;-40
2021/06/18 09:36:25;;;;;;;;;;;;;;;25.00;69.70;101255.56;5136297;27;19980;-40
2021/06/18 09:38:54;;;;;;;;;;;;;;;25.19;70.11;101250.63;5136186;27;19907;-40
2021/06/18 09:41:34;;;;;;;;;;;;;;;25.44;69.23;101257.38;5136377;27;20250;-40
2021/06/18 09:44:01;;;;;;;;;;;;;;;25.51;66.36;101259.66;5135966;27;19911;-40
2021/06/18 09:46:39;;;;;;;;;;;;;;;25.56;65.79;101249.25;5136485;27;20009;-40
2021/06/18 09:49:04;;;;;;;;;;;;;;;25.57;64.59;101245.38;5136847;27;20300;-40
2021/06/18 09:51:29;;;;;;;;;;;;;;;25.71;66.39;101241.63;5135580;27;19908;-40
2021/06/18 09:53:54;;;;;;;;;;;;;;;25.92;66.25;101228.81;5135464;27;19908;-40
2021/06/18 09:56:20;;;;;;;;;;;;;;;26.02;63.42;101231.25;5135787;27;19908;-40
2021/06/18 09:58:47;;;;;;;;;;;;;;;26.05;63.85;101241.69;5135448;27;19914;-40
2021/06/18 10:01:17;;;;;;;;;;;;;;;26.22;63.33;101231.75;5136024;27;19936;-40
2021/06/18 10:04:01;;;;;;;;;;;;;;;26.28;63.31;101234.00;5135532;27;19907;-40
2021/06/18 10:06:27;;;;;;;;;;;;;;;26.46;62.79;101239.59;5136426;27;19952;-40
2021/06/18 10:08:53;;;;;;;;;;;;;;;26.53;63.27;101237.09;5135896;27;19922;-40
2021/06/18 10:11:18;;;;;;;;;;;;;;;26.49;61.81;101234.16;5136458;27;19907;-40
2021/06/18 10:13:43;;;;;;;;;;;;;;;26.58;60.32;101234.97;5134956;27;20001;-40
2021/06/18 10:16:09;;;;;;;;;;;;;;;26.78;62.14;101230.66;5135535;27;20254;-40
2021/06/18 10:18:34;;;;;;;;;;;;;;;26.74;59.46;101228.88;5135154;27;20243;-40
2021/06/18 10:21:02;;;;;;;;;;;;;;;26.67;60.45;101223.84;5135652;27;19907;-40
2021/06/18 10:23:29;;;;;;;;;;;;;;;26.67;60.42;101229.41;5135282;27;20055;-40
2021/06/18 10:26:02;;;;;;;;;;;;;;;26.60;60.66;101218.03;5135342;27;19966;-40
2021/06/18 10:28:34;;;;;;;;;;;;;;;26.75;62.88;101211.13;5135493;27;19908;-40
2021/06/18 10:31:01;;;;;;;;;;;;;;;27.07;61.38;101215.22;5135841;27;19911;-40
2021/06/18 10:33:29;;;;;;;;;;;;;;;27.30;60.51;101204.69;5135503;27;19963;-40
2021/06/18 10:38:26;;;;;;;;;;;;;;;27.70;58.99;101199.50;5135114;27;20282;-40
2021/06/18 10:40:51;;;;;;;;;;;;;;;27.83;58.64;101197.66;5135735;27;19907;-40
2021/06/18 10:43:17;;;;;;;;;;;;;;;27.94;59.09;101183.00;5135384;27;19907;-40
2021/06/18 10:45:57;;;;;;;;;;;;;;;28.00;57.94;101177.22;5135288;27;20398;-40
2021/06/18 10:48:42;;;;;;;;;;;;;;;28.21;58.58;101169.69;5134669;27;20324;-40
2021/06/18 10:51:26;;;;;;;;;;;;;;;28.34;58.12;101163.00;5134566;27;19962;-40
2021/06/18 10:53:54;;;;;;;;;;;;;;;28.30;56.77;101167.59;5134935;27;20239;-40
2021/06/18 10:56:19;;;;;;;;;;;;;;;28.45;56.09;101177.28;5135101;27;19907;-40
2021/06/18 10:59:03;;;;;;;;;;;;;;;28.58;54.98;101178.94;5134820;27;19908;-40
2021/06/18 11:01:35;;;;;;;;;;;;;;;28.73;54.15;101180.25;5135838;27;19930;-40
2021/06/18 11:04:00;;;;;;;;;;;;;;;28.84;54.78;101175.88;5134229;27;19907;-40
2021/06/18 11:06:41;;;;;;;;;;;;;;;28.72;52.36;101173.06;5134680;27;19914;-40
2021/06/18 11:09:06;;;;;;;;;;;;;;;28.74;52.62;101179.91;5135014;27;19911;-40
2021/06/18 11:11:31;;;;;;;;;;;;;;;28.84;52.67;101177.81;5134428;27;20335;-40
2021/06/18 11:14:01;;;;;;;;;;;;;;;28.72;52.34;101175.84;5134355;27;20378;-40
2021/06/18 11:16:33;;;;;;;;;;;;;;;28.87;53.84;101177.94;5135101;27;19907;-40
2021/06/18 11:19:17;;;;;;;;;;;;;;;29.06;53.50;101165.44;5134529;27;20363;-40
2021/06/18 11:21:42;;;;;;;;;;;;;;;29.25;54.98;101157.31;5135547;27;19956;-40
2021/06/18 11:24:08;;;;;;;;;;;;;;;29.34;53.67;101165.53;5134083;27;19911;-40
2021/06/18 11:26:33;;;;;;;;;;;;;;;29.35;52.83;101165.19;5138177;27;19907;-40
2021/06/18 11:28:58;;;;;;;;;;;;;;;29.41;53.14;101161.00;5138304;27;19953;-40
2021/06/18 11:31:37;;;;;;;;;;;;;;;29.39;52.90;101166.13;5138953;27;19908;-41
2021/06/18 11:34:03;;;;;;;;;;;;;;;29.25;50.49;101158.13;5137735;27;19932;-40
2021/06/18 11:36:37;;;;;;;;;;;;;;;29.42;53.11;101165.38;5138844;27;19907;-40
2021/06/18 11:39:08;;;;;;;;;;;;;;;29.67;53.32;101155.06;5137074;27;19911;-40
2021/06/18 11:41:42;;;;;;;;;;;;;;;29.70;50.93;101156.31;5138411;27;20358;-40
2021/06/18 11:44:09;;;;;;;;;;;;;;;29.76;50.76;101154.88;5139205;27;19994;-40
2021/06/18 11:46:35;;;;;;;;;;;;;;;29.84;50.78;101150.34;5138213;27;19951;-40
2021/06/18 11:49:10;;;;;;;;;;;;;;;29.90;50.43;101144.16;5138124;27;20361;-40
2021/06/18 11:51:35;;;;;;;;;;;;;;;29.68;50.00;101139.94;5138608;27;19933;-40
2021/06/18 11:54:01;;;;;;;;;;;;;;;29.67;51.22;101143.06;5137983;27;20390;-40
2021/06/18 11:56:27;;;;;;;;;;;;;;;29.74;51.67;101141.31;5138164;27;19907;-40
2021/06/18 11:58:52;;;;;;;;;;;;;;;29.96;51.51;101145.50;5138337;27;19950;-41
2021/06/18 12:01:24;;;;;;;;;;;;;;;30.15;48.58;101138.47;5138158;27;20017;-40
2021/06/18 12:03:50;;;;;;;;;;;;;;;30.09;47.38;101135.13;5137720;27;19908;-40
2021/06/18 12:06:22;;;;;;;;;;;;;;;30.21;48.46;101134.28;5138391;27;20351;-41
2021/06/18 12:08:57;;;;;;;;;;;;;;;30.39;48.85;101135.53;5138544;27;19954;-40
2021/06/18 12:11:22;;;;;;;;;;;;;;;30.57;48.31;101124.84;5138698;27;20235;-40
2021/06/18 12:13:48;;;;;;;;;;;;;;;30.75;49.55;101128.13;5137514;27;19915;-41
2021/06/18 12:16:13;;;;;;;;;;;;;;;30.82;49.03;101124.69;5137499;27;20355;-40
2021/06/18 12:18:39;;;;;;;;;;;;;;;30.87;46.29;101127.19;5137413;27;19943;-40
2021/06/18 12:21:04;;;;;;;;;;;;;;;30.95;47.99;101129.81;5137409;27;19954;-40
2021/06/18 12:23:29;;;;;;;;;;;;;;;31.05;45.33;101125.66;5138619;27;19952;-41
2021/06/18 12:25:54;;;;;;;;;;;;;;;31.21;45.95;101117.22;5137862;27;19907;-40
2021/06/18 12:28:20;;;;;;;;;;;;;;;31.36;45.69;101112.78;5137489;27;19907;-40
2021/06/18 12:30:45;;;;;;;;;;;;;;;31.32;42.70;101112.69;5137731;27;20346;-40
2021/06/18 12:33:10;;;;;;;;;;;;;;;31.26;45.29;101109.38;5137390;27;20362;-40
2021/06/18 12:35:42;;;;;;;;;;;;;;;31.40;45.10;101097.72;5138006;27;19958;-41
2021/06/18 12:38:10;;;;;;;;;;;;;;;31.49;43.47;101098.31;5135646;27;19908;-41